Thomaston, GA

10:04 AM EST on November 23, 2014 (GMT -0500)
Thomaston-Upson County | Change Station
CLOSE
Current Station
Airport
Location: Thomaston,
Elevation: 797 ft
Nearby Weather Stations

Elev 797 ft 32.95 °N, 84.26 °W | Updated 9 minutes ago

Rain
Rain
59 °F
Feels Like 59 °F
N
8
Wind Variable Wind from East

Today
High -- | Low -- °F
--% Chance of Precip.
Yesterday
High -- | Low -- °F
Precip. -- in
7:15 AM 5:32 PM
New Moon, 1% visible
Pressure 29.99 in
Visibility 3.0 miles
Clouds Overcast 600 ft
Dew Point 59 °F
Humidity 100%
Rainfall 0.00 in
Snow Depth Not available.
UV 1 out of 12
Pollen .30 out of 12
Air Quality Not available.
Flu Activity Not available.
METAR KOPN 231455Z AUTO 10007KT 080V140 3SM RA OVC006 15/15 A2999 RMK AO2 LTG DSNT SW

More Conditions Fewer Conditions

Pressure 29.99 in
Visibility 3.0 miles
Clouds Overcast 600 ft
Dew Point 59 °F
Humidity 100%
Rainfall 0.00 in
Snow Depth Not available.
UV 1 out of 12
Pollen .30 out of 12
Air Quality Not available.
Flu Activity Not available.
METAR KOPN 231455Z AUTO 10007KT 080V140 3SM RA OVC006 15/15 A2999 RMK AO2 LTG DSNT SW

More Conditions Fewer Conditions

10-Day Weather Forecast

Almanac

Astronomy

Nov. 23, 2014 Rise Set
Actual Time
Civil Twilight
Nautical Twilight
Astronomical Twilight
Moon
Length of Visible Light
Length of Day
Tomorrow will be .
, % of the Moon is Illuminated

Today's Extremes

State Highs State Lows

Community

WunderPhotos

Upload Photos

1,773,085 photos uploaded!

WunderBlogs® & News

Nearby

Air Quality

  Air Quality AQ Index Pollutant
Not available.

Snow Depth

Station Depth Elevation

Earthquake Activity

City Distance Mag. Time & Date
Minimum magnitude displayed is 2.5.

Coastal Water Temperatures

Place Temperature

Nearby Weather Stations